Time;durP1;ratioP1;P1;durP2;ratioP2;P2;SDS_P1;SDS_P2;PMS_P1;PMS_P2;Temp;Humidity;BMP_temperature;BMP_pressure;BME280_temperature;BME280_humidity;BME280_pressure;Samples;Min_cycle;Max_cycle;Signal;HPM_P1;HPM_P2
2021/09/28 00:00:16;;;;;;;;;5.00;5.00;;;;;17.31;58.20;102012.44;5036624;28;45454;-80
2021/09/28 00:02:42;;;;;;;;;5.00;5.00;;;;;17.29;58.42;102011.50;5036213;28;45577;-81
2021/09/28 00:05:08;;;;;;;;;5.25;3.50;;;;;17.28;58.48;102018.47;5036099;28;45751;-80
2021/09/28 00:07:33;;;;;;;;;4.75;4.25;;;;;17.25;58.79;102017.47;5035828;28;45848;-80
2021/09/28 00:09:59;;;;;;;;;11.00;8.25;;;;;17.23;59.37;102021.75;5036328;28;45323;-80
2021/09/28 00:12:24;;;;;;;;;6.00;6.00;;;;;17.17;59.47;102020.66;5036589;28;45552;-81
2021/09/28 00:14:50;;;;;;;;;7.25;6.75;;;;;17.13;59.49;102033.59;5035883;28;45720;-81
2021/09/28 00:17:16;;;;;;;;;11.75;10.75;;;;;17.07;59.43;102028.13;5036340;28;45406;-81
2021/09/28 00:19:41;;;;;;;;;10.75;10.00;;;;;17.05;59.89;102024.56;5036056;28;45412;-80
2021/09/28 00:22:07;;;;;;;;;8.25;6.25;;;;;17.03;60.33;102024.53;5036624;28;45241;-80
2021/09/28 00:24:34;;;;;;;;;10.50;10.25;;;;;17.02;60.17;102038.44;5035894;28;45233;-80
2021/09/28 00:27:01;;;;;;;;;10.50;8.00;;;;;17.02;60.30;102038.44;5035505;28;45239;-81
2021/09/28 00:29:26;;;;;;;;;11.75;8.75;;;;;17.01;60.33;102036.66;5036129;28;45356;-81
2021/09/28 00:31:52;;;;;;;;;11.50;8.25;;;;;17.04;60.44;102042.00;5018242;28;45481;-81
2021/09/28 00:34:19;;;;;;;;;9.00;8.50;;;;;17.03;60.21;102045.44;5036101;28;46563;-80
2021/09/28 00:36:45;;;;;;;;;10.50;8.25;;;;;17.03;60.34;102048.06;5037397;28;45669;-81
2021/09/28 00:39:10;;;;;;;;;6.00;6.00;;;;;16.99;59.97;102038.31;5039623;28;45360;-82
2021/09/28 00:41:36;;;;;;;;;7.25;7.25;;;;;16.95;60.67;102039.91;5039490;28;45225;-79
2021/09/28 00:44:02;;;;;;;;;4.25;4.25;;;;;16.94;60.49;102040.75;5039180;28;45303;-80
2021/09/28 00:46:27;;;;;;;;;7.25;5.75;;;;;16.96;60.52;102030.31;5038633;28;45365;-79
2021/09/28 00:48:53;;;;;;;;;5.25;4.00;;;;;16.97;60.48;102037.34;5039335;28;45224;-78
2021/09/28 00:51:20;;;;;;;;;7.75;5.75;;;;;16.98;60.78;102026.97;5039793;28;45351;-78
2021/09/28 00:53:50;;;;;;;;;4.00;4.00;;;;;16.98;60.63;102037.44;5039285;28;45515;-78
2021/09/28 00:56:18;;;;;;;;;8.00;7.00;;;;;16.97;60.56;102030.41;5039079;28;45391;-78
2021/09/28 00:58:45;;;;;;;;;6.75;6.00;;;;;16.97;60.53;102034.72;5021227;28;45193;-79
2021/09/28 01:01:12;;;;;;;;;7.00;6.50;;;;;16.96;60.97;102031.25;5039455;28;45918;-80
2021/09/28 01:03:38;;;;;;;;;6.50;6.00;;;;;16.97;60.76;102025.19;5038903;28;45398;-78
2021/09/28 01:06:06;;;;;;;;;5.00;5.00;;;;;16.99;60.60;102026.13;5038558;28;45915;-78
2021/09/28 01:08:31;;;;;;;;;12.00;7.75;;;;;17.01;60.64;102031.41;5039195;28;45247;-79
2021/09/28 01:10:57;;;;;;;;;9.00;6.50;;;;;17.00;60.54;102029.63;5021618;28;46010;-80
2021/09/28 01:13:24;;;;;;;;;5.25;4.00;;;;;17.00;60.35;102025.31;5038797;28;45461;-78
2021/09/28 01:15:59;;;;;;;;;6.25;5.00;;;;;17.01;60.28;102026.19;5038986;28;45232;-80
2021/09/28 01:18:26;;;;;;;;;8.00;7.75;;;;;16.97;60.22;102026.88;5039031;28;45352;-80
2021/09/28 01:20:52;;;;;;;;;11.50;10.25;;;;;16.92;60.52;102031.03;5039101;28;45540;-78
2021/09/28 01:23:18;;;;;;;;;7.75;7.75;;;;;16.90;60.82;102023.09;5038721;28;46105;-80
2021/09/28 01:25:43;;;;;;;;;12.50;7.00;;;;;16.87;60.89;102033.47;5038241;28;45462;-80
2021/09/28 01:28:09;;;;;;;;;7.75;7.50;;;;;16.84;60.72;102030.72;5038155;28;45347;-80
2021/09/28 01:30:35;;;;;;;;;9.25;6.50;;;;;16.78;60.96;102035.75;5020453;28;45451;-80
2021/09/28 01:33:01;;;;;;;;;7.50;6.50;;;;;16.68;60.66;102035.34;5038441;28;45460;-81
2021/09/28 01:35:28;;;;;;;;;9.25;6.75;;;;;16.60;60.82;102031.56;5038517;28;45272;-79
2021/09/28 01:37:54;;;;;;;;;7.50;4.25;;;;;16.56;60.82;102029.66;5038091;28;45564;-81
2021/09/28 01:40:20;;;;;;;;;8.25;6.00;;;;;16.53;61.26;102032.16;5039072;28;45224;-80
2021/09/28 01:42:45;;;;;;;;;11.25;8.50;;;;;16.53;61.46;102025.19;5038218;28;45841;-80
2021/09/28 01:45:11;;;;;;;;;9.00;6.25;;;;;16.55;61.22;102023.53;5038335;28;45331;-78
2021/09/28 01:47:36;;;;;;;;;8.50;6.25;;;;;16.57;61.07;102023.59;5037729;28;45392;-77
2021/09/28 01:50:03;;;;;;;;;11.00;11.00;;;;;16.54;61.54;102011.28;5038413;28;45579;-80
2021/09/28 01:52:29;;;;;;;;;12.25;12.25;;;;;16.51;61.52;102005.03;5038022;28;46230;-79
2021/09/28 01:54:55;;;;;;;;;17.50;16.00;;;;;16.47;61.56;102010.97;5038030;28;45292;-80
2021/09/28 01:57:20;;;;;;;;;18.75;18.25;;;;;16.46;61.68;102010.09;5037886;28;45414;-80
2021/09/28 01:59:46;;;;;;;;;29.25;26.50;;;;;16.45;61.73;102016.16;5038292;28;45495;-80
2021/09/28 02:02:12;;;;;;;;;33.25;28.50;;;;;16.45;62.01;102012.66;5037918;28;46205;-78
2021/09/28 02:04:37;;;;;;;;;42.00;35.50;;;;;16.44;62.03;102003.03;5038126;28;45385;-78
2021/09/28 02:07:03;;;;;;;;;43.50;34.25;;;;;16.41;61.97;101993.34;5037757;28;45268;-79
2021/09/28 02:09:28;;;;;;;;;48.25;38.00;;;;;16.41;61.77;102003.81;5038322;28;45371;-80
2021/09/28 02:11:54;;;;;;;;;44.75;36.25;;;;;16.43;62.10;101996.00;5037759;28;46005;-78
2021/09/28 02:14:26;;;;;;;;;46.50;39.25;;;;;16.45;61.90;101990.00;5038114;28;45342;-80
2021/09/28 02:16:51;;;;;;;;;45.75;37.25;;;;;16.47;62.06;101992.66;5038107;28;45380;-79
2021/09/28 02:19:17;;;;;;;;;50.00;38.50;;;;;16.49;62.11;101993.63;5037994;28;45322;-80
2021/09/28 02:21:42;;;;;;;;;49.00;39.50;;;;;16.49;61.99;101996.25;5037464;28;45961;-79
2021/09/28 02:24:10;;;;;;;;;45.50;39.50;;;;;16.49;62.14;101988.41;5037360;28;45264;-79
2021/09/28 02:26:35;;;;;;;;;51.50;41.00;;;;;16.46;62.03;101989.19;5019430;28;45233;-79
2021/09/28 02:29:01;;;;;;;;;51.25;40.00;;;;;16.42;62.29;101983.78;5037853;28;45566;-79
2021/09/28 02:31:27;;;;;;;;;52.75;41.25;;;;;16.40;62.08;101984.59;5037320;28;45358;-77
2021/09/28 02:33:52;;;;;;;;;56.00;43.75;;;;;16.35;62.14;101986.16;5037865;28;45396;-77
2021/09/28 02:36:18;;;;;;;;;52.75;42.00;;;;;16.33;62.30;101986.91;5037179;28;45552;-80
2021/09/28 02:38:43;;;;;;;;;48.00;39.00;;;;;16.32;62.75;101980.81;5037735;28;45398;-80
2021/09/28 02:41:09;;;;;;;;;44.25;35.00;;;;;16.32;62.36;101978.19;5037379;28;46153;-79
2021/09/28 02:43:35;;;;;;;;;43.75;34.25;;;;;16.30;62.22;101982.44;5037298;28;46067;-77
2021/09/28 02:46:00;;;;;;;;;35.25;33.00;;;;;16.28;62.42;101980.63;5037168;28;45422;-79
2021/09/28 02:48:26;;;;;;;;;34.50;31.75;;;;;16.26;62.69;101980.53;5037517;28;45327;-77
2021/09/28 02:50:52;;;;;;;;;33.75;29.50;;;;;16.25;62.58;101973.56;5037338;28;45467;-76
2021/09/28 02:53:17;;;;;;;;;34.50;31.50;;;;;16.25;62.63;101973.56;5038084;28;45343;-81
2021/09/28 02:55:43;;;;;;;;;33.75;29.00;;;;;16.27;62.68;101971.00;5037750;28;45462;-79
2021/09/28 02:58:09;;;;;;;;;26.00;24.25;;;;;16.29;62.15;101969.34;5036972;28;45711;-80
2021/09/28 03:00:34;;;;;;;;;30.00;23.25;;;;;16.28;62.38;101963.19;5036387;28;45466;-80
2021/09/28 03:03:00;;;;;;;;;26.00;23.50;;;;;16.25;62.17;101956.13;5037033;28;45261;-80
2021/09/28 03:05:25;;;;;;;;;26.00;23.75;;;;;16.24;62.31;101966.53;5019494;28;45288;-80
2021/09/28 03:07:51;;;;;;;;;28.75;22.25;;;;;16.20;62.47;101965.50;5037049;28;45447;-80
2021/09/28 03:10:17;;;;;;;;;27.50;21.50;;;;;16.16;62.70;101962.72;5036723;28;46063;-81
2021/09/28 03:12:42;;;;;;;;;24.25;23.25;;;;;16.13;63.11;101966.09;5036717;28;45381;-79
2021/09/28 03:15:08;;;;;;;;;33.75;24.50;;;;;16.13;62.92;101962.59;5036962;28;45430;-79
2021/09/28 03:17:34;;;;;;;;;22.00;20.50;;;;;16.09;63.34;101970.31;5036651;28;45477;-79
2021/09/28 03:20:00;;;;;;;;;23.00;19.25;;;;;16.04;63.34;101970.94;5018950;28;46204;-82
2021/09/28 03:22:25;;;;;;;;;19.25;18.25;;;;;16.00;63.37;101963.81;5037338;28;45320;-80
2021/09/28 03:24:51;;;;;;;;;23.75;19.00;;;;;15.97;63.03;101971.53;5036625;28;45349;-79
2021/09/28 03:27:17;;;;;;;;;22.00;19.75;;;;;15.93;63.26;101971.41;5036917;28;45204;-79
2021/09/28 03:29:42;;;;;;;;;26.00;21.00;;;;;15.92;63.78;101964.38;5036941;28;45590;-79
2021/09/28 03:32:08;;;;;;;;;19.50;16.75;;;;;15.92;63.41;101963.50;5018579;28;45360;-80
2021/09/28 03:34:34;;;;;;;;;17.50;16.50;;;;;15.89;63.66;101964.25;5036696;28;45273;-80
2021/09/28 03:36:59;;;;;;;;;17.75;17.75;;;;;15.88;63.34;101956.38;5036515;28;45399;-80
2021/09/28 03:39:25;;;;;;;;;25.50;21.75;;;;;15.86;63.47;101952.78;5036738;28;45947;-80
2021/09/28 03:41:50;;;;;;;;;23.25;19.50;;;;;15.83;63.49;101953.53;5036396;28;45518;-80
2021/09/28 03:44:16;;;;;;;;;20.75;18.00;;;;;15.82;63.92;101961.31;5036347;28;45342;-79
2021/09/28 03:46:41;;;;;;;;;19.00;17.25;;;;;15.77;63.77;101956.78;5036520;28;45430;-76
2021/09/28 03:49:07;;;;;;;;;17.50;16.25;;;;;15.78;63.69;101955.03;5036177;28;46205;-79
2021/09/28 03:51:33;;;;;;;;;18.75;16.50;;;;;15.79;64.10;101949.91;5036381;28;45391;-77
2021/09/28 03:53:58;;;;;;;;;16.50;16.50;;;;;15.81;63.77;101949.97;5036764;28;45327;-77
2021/09/28 03:56:24;;;;;;;;;19.00;17.00;;;;;15.81;63.86;101955.19;5036702;28;45582;-80
2021/09/28 03:58:49;;;;;;;;;21.75;17.50;;;;;15.80;64.06;101945.56;5036304;28;45827;-80
2021/09/28 04:01:15;;;;;;;;;15.75;15.75;;;;;15.83;63.80;101942.19;5036095;28;45292;-80
2021/09/28 04:03:41;;;;;;;;;16.75;14.75;;;;;15.84;63.79;101937.06;5036440;28;45373;-80
2021/09/28 04:06:08;;;;;;;;;17.50;14.75;;;;;15.86;63.45;101939.72;5036044;28;45532;-80
2021/09/28 04:08:33;;;;;;;;;25.25;21.75;;;;;15.88;63.39;101943.31;5036192;28;46025;-80
2021/09/28 04:10:59;;;;;;;;;21.25;17.75;;;;;15.88;63.52;101943.31;5038291;28;45293;-78
2021/09/28 04:13:25;;;;;;;;;17.25;15.50;;;;;15.91;63.54;101948.66;5040211;28;45352;-80
2021/09/28 04:15:52;;;;;;;;;17.50;16.50;;;;;15.96;63.50;101954.06;5040069;28;45372;-81
2021/09/28 04:18:18;;;;;;;;;16.25;14.00;;;;;15.99;63.74;101952.47;5039355;28;46234;-79
2021/09/28 04:20:45;;;;;;;;;19.00;18.25;;;;;15.99;63.23;101947.25;5039519;28;45429;-78
2021/09/28 04:23:12;;;;;;;;;14.75;14.75;;;;;16.00;63.18;101953.34;5039699;28;45486;-79
2021/09/28 04:25:40;;;;;;;;;19.25;16.50;;;;;16.01;63.21;101962.97;5039860;28;45315;-80
2021/09/28 04:28:07;;;;;;;;;21.50;17.00;;;;;16.04;63.17;101966.59;5039097;28;45331;-78
2021/09/28 04:30:33;;;;;;;;;17.75;14.50;;;;;16.03;62.60;101954.41;5039551;28;45822;-76
2021/09/28 04:32:58;;;;;;;;;16.50;14.50;;;;;16.00;62.74;101963.81;5039989;28;45324;-80
2021/09/28 04:35:24;;;;;;;;;18.50;17.00;;;;;15.99;62.91;101962.94;5039349;28;45652;-80
2021/09/28 04:37:50;;;;;;;;;18.00;14.00;;;;;15.99;62.68;101970.75;5039171;28;45406;-81
2021/09/28 04:40:15;;;;;;;;;16.50;12.75;;;;;15.97;62.70;101967.19;5038669;28;45433;-78
2021/09/28 04:42:42;;;;;;;;;16.00;13.25;;;;;15.98;62.60;101962.88;5038430;28;45644;-79
2021/09/28 04:45:09;;;;;;;;;15.25;12.00;;;;;15.96;62.85;101961.91;5039256;28;45466;-79
2021/09/28 04:47:34;;;;;;;;;14.00;12.25;;;;;15.96;62.96;101957.56;5041832;28;46135;-81
2021/09/28 04:50:00;;;;;;;;;17.50;15.00;;;;;15.96;62.74;101960.19;5039453;28;45305;-81
2021/09/28 04:52:26;;;;;;;;;26.50;19.75;;;;;15.94;62.60;101954.91;5039258;28;45747;-83
2021/09/28 04:54:52;;;;;;;;;18.50;16.25;;;;;15.89;62.85;101960.75;5038225;28;45513;-79
2021/09/28 04:57:18;;;;;;;;;19.25;17.50;;;;;15.83;62.53;101956.13;5038803;28;46023;-80
2021/09/28 04:59:43;;;;;;;;;22.75;20.00;;;;;15.81;62.92;101962.13;5038942;28;45869;-80
2021/09/28 05:02:09;;;;;;;;;23.25;21.50;;;;;15.81;62.89;101962.13;5038379;28;45323;-80
2021/09/28 05:04:35;;;;;;;;;21.50;21.25;;;;;15.80;63.29;101963.84;5043949;28;45570;-81
2021/09/28 05:07:01;;;;;;;;;26.50;20.75;;;;;15.79;63.19;101970.78;5020031;28;45403;-80
2021/09/28 05:09:27;;;;;;;;;23.25;19.00;;;;;15.78;62.93;101957.66;5038722;28;45344;-81
2021/09/28 05:11:55;;;;;;;;;18.50;18.50;;;;;15.77;63.06;101961.09;5038643;28;45477;-80
2021/09/28 05:14:21;;;;;;;;;21.00;18.75;;;;;15.78;63.50;101955.94;5038173;28;45345;-81
2021/09/28 05:16:47;;;;;;;;;16.50;16.50;;;;;15.77;63.20;101954.16;5038260;28;45918;-80
2021/09/28 05:19:12;;;;;;;;;18.25;16.00;;;;;15.74;63.40;101955.75;5038980;28;45809;-81
2021/09/28 05:21:38;;;;;;;;;16.25;15.75;;;;;15.75;63.38;101973.22;5025229;28;45390;-78
2021/09/28 05:24:04;;;;;;;;;12.50;12.50;;;;;15.75;62.92;101965.38;5039142;28;45501;-79
2021/09/28 05:26:29;;;;;;;;;10.25;10.25;;;;;15.74;63.05;101966.22;5047156;28;45463;-80
2021/09/28 05:28:55;;;;;;;;;10.00;9.75;;;;;15.74;63.20;101966.22;5037295;28;45546;-81
2021/09/28 05:31:21;;;;;;;;;12.00;11.50;;;;;15.74;62.59;101967.09;5031805;28;46804;-81
2021/09/28 05:33:47;;;;;;;;;10.50;8.75;;;;;15.72;62.97;101966.13;5046879;28;45484;-79
2021/09/28 05:36:13;;;;;;;;;8.50;8.50;;;;;15.74;63.04;101961.00;5032210;28;47004;-80
2021/09/28 05:38:38;;;;;;;;;13.00;11.50;;;;;15.74;62.67;101963.59;5047535;28;45381;-81
2021/09/28 05:41:06;;;;;;;;;12.75;11.25;;;;;15.72;63.18;101952.19;5048633;28;45494;-77
2021/09/28 05:43:32;;;;;;;;;11.75;10.25;;;;;15.71;63.06;101946.06;5037341;28;45559;-79
2021/09/28 05:45:58;;;;;;;;;5.50;5.00;;;;;15.70;62.52;101939.09;5036538;28;46157;-80
2021/09/28 05:48:24;;;;;;;;;11.50;9.50;;;;;15.70;62.65;101941.69;5040719;28;45456;-80
2021/09/28 05:50:50;;;;;;;;;12.00;9.00;;;;;15.70;62.40;101936.47;5044202;28;45525;-80
2021/09/28 05:53:15;;;;;;;;;8.00;7.75;;;;;15.72;62.80;101933.91;5040551;28;45541;-79
2021/09/28 05:55:41;;;;;;;;;7.50;7.50;;;;;15.74;62.05;101937.50;5047670;28;46859;-77
2021/09/28 05:58:07;;;;;;;;;10.25;6.00;;;;;15.75;61.72;101939.28;5053367;28;45354;-78
2021/09/28 06:00:33;;;;;;;;;6.25;4.75;;;;;15.75;61.65;101939.28;5047075;28;45227;-77
2021/09/28 06:02:58;;;;;;;;;7.25;6.25;;;;;15.75;61.72;101932.31;5038316;28;45382;-77
2021/09/28 06:05:24;;;;;;;;;13.75;13.00;;;;;15.76;62.19;101935.84;5023211;28;46016;-83
2021/09/28 06:07:50;;;;;;;;;11.50;10.00;;;;;15.77;62.32;101930.66;5034891;28;45225;-87
2021/09/28 06:10:16;;;;;;;;;9.75;6.50;;;;;15.81;62.00;101938.63;5038514;28;45267;-81
2021/09/28 06:12:42;;;;;;;;;12.25;10.50;;;;;15.83;62.02;101944.78;5038447;28;45666;-82
2021/09/28 06:15:08;;;;;;;;;17.00;15.75;;;;;15.85;62.44;101956.22;5041967;28;45390;-83
2021/09/28 06:17:34;;;;;;;;;12.75;9.75;;;;;15.86;62.11;101945.88;5038248;28;45866;-79
2021/09/28 06:20:00;;;;;;;;;14.00;9.75;;;;;15.88;61.81;101940.69;5045625;28;45334;-83
2021/09/28 06:22:26;;;;;;;;;10.00;7.50;;;;;15.89;61.33;101945.97;5047705;28;45541;-83
2021/09/28 06:24:55;;;;;;;;;8.50;7.75;;;;;15.93;61.31;101941.75;5045984;28;45475;-83
2021/09/28 06:27:22;;;;;;;;;6.50;6.50;;;;;15.95;60.70;101942.72;5037159;28;45617;-80
2021/09/28 06:29:48;;;;;;;;;5.00;5.00;;;;;15.98;60.87;101939.38;5037321;28;45407;-82
2021/09/28 06:32:14;;;;;;;;;6.75;6.00;;;;;15.98;60.23;101945.47;5037389;28;45379;-81
2021/09/28 06:34:39;;;;;;;;;7.25;4.25;;;;;16.00;60.16;101942.91;5038269;28;45998;-84
2021/09/28 06:37:05;;;;;;;;;6.50;5.00;;;;;16.02;59.92;101950.00;5037708;28;45367;-81
2021/09/28 06:39:31;;;;;;;;;7.75;7.75;;;;;16.06;60.55;101941.44;5040334;28;45349;-80
2021/09/28 06:41:57;;;;;;;;;12.00;11.50;;;;;16.12;60.30;101946.03;5048245;28;45608;-80
2021/09/28 06:44:22;;;;;;;;;16.50;13.25;;;;;16.13;60.05;101949.53;5040286;28;46098;-83
2021/09/28 06:46:48;;;;;;;;;14.50;13.75;;;;;16.17;60.27;101948.81;5051858;28;45366;-85
2021/09/28 06:49:13;;;;;;;;;11.75;11.75;;;;;16.17;60.17;101943.59;5042343;28;45575;-79
2021/09/28 06:51:40;;;;;;;;;9.25;8.75;;;;;16.17;60.20;101944.50;5043217;28;46689;-81
2021/09/28 06:54:05;;;;;;;;;13.50;11.50;;;;;16.19;60.39;101942.84;5039141;28;45463;-80
2021/09/28 06:56:31;;;;;;;;;11.75;11.75;;;;;16.21;60.49;101945.50;5036413;28;45372;-79
2021/09/28 06:58:58;;;;;;;;;13.00;11.00;;;;;16.21;61.15;101946.38;5036645;28;45527;-81
2021/09/28 07:01:23;;;;;;;;;15.00;14.25;;;;;16.25;61.42;101935.22;5036912;28;45467;-82
2021/09/28 07:03:49;;;;;;;;;13.50;12.00;;;;;16.30;61.57;101943.25;5036423;28;45342;-80
2021/09/28 07:06:15;;;;;;;;;15.00;15.00;;;;;16.33;61.48;101945.09;5036284;28;45456;-82
2021/09/28 07:08:41;;;;;;;;;11.50;10.25;;;;;16.32;60.67;101946.81;5035986;28;45605;-78
2021/09/28 07:11:06;;;;;;;;;6.50;6.50;;;;;16.27;60.74;101940.50;5023501;28;45690;-82
2021/09/28 07:13:32;;;;;;;;;6.25;5.75;;;;;16.26;60.02;101943.94;5044008;28;45690;-79
2021/09/28 07:15:57;;;;;;;;;4.75;4.75;;;;;16.29;59.99;101945.81;5059341;28;45321;-80
2021/09/28 07:18:23;;;;;;;;;6.75;6.50;;;;;16.30;59.71;101942.38;5042005;28;45471;-89
2021/09/28 07:20:49;;;;;;;;;4.25;4.25;;;;;16.33;59.14;101937.25;5039503;28;45407;-86
2021/09/28 07:23:14;;;;;;;;;3.50;3.00;;;;;16.35;59.37;101935.59;5039924;28;45536;-88
2021/09/28 07:25:40;;;;;;;;;3.25;3.25;;;;;16.37;59.14;101939.16;5037785;28;45295;-86
2021/09/28 07:28:06;;;;;;;;;4.25;4.25;;;;;16.40;59.26;101942.78;5018289;28;45361;-89
2021/09/28 07:30:33;;;;;;;;;3.25;3.25;;;;;16.43;58.54;101948.97;5006075;28;45270;-88
2021/09/28 07:33:00;;;;;;;;;4.00;4.00;;;;;16.46;58.72;101943.88;5024622;28;45573;-89
2021/09/28 07:35:26;;;;;;;;;5.00;2.25;;;;;16.47;58.01;101940.38;5041984;28;45443;-89
2021/09/28 07:37:52;;;;;;;;;2.00;2.00;;;;;16.45;57.96;101935.13;5020091;28;45545;-88
2021/09/28 07:40:18;;;;;;;;;3.00;3.00;;;;;16.47;57.35;101932.53;5017033;28;45597;-83
2021/09/28 07:42:49;;;;;;;;;4.25;1.50;;;;;16.48;57.93;101929.09;5018397;28;45503;-81
2021/09/28 07:45:15;;;;;;;;;8.50;4.00;;;;;16.51;57.17;101934.47;5000357;28;45631;-82
2021/09/28 07:47:41;;;;;;;;;5.50;5.25;;;;;16.50;57.62;101927.44;5032479;28;45269;-82
2021/09/28 07:50:09;;;;;;;;;4.75;3.75;;;;;16.52;57.81;101931.03;5042019;28;45229;-81
2021/09/28 07:52:44;;;;;;;;;7.75;3.75;;;;;16.56;57.77;101932.94;5019420;28;46953;-82
2021/09/28 07:55:11;;;;;;;;;7.00;5.25;;;;;16.61;57.88;101938.34;5018433;28;46840;-81
2021/09/28 07:57:36;;;;;;;;;10.75;4.50;;;;;16.65;57.93;101946.34;5019590;28;45300;-87
2021/09/28 08:00:05;;;;;;;;;5.25;5.25;;;;;16.72;58.18;101947.47;5022377;28;45267;-84
2021/09/28 08:02:31;;;;;;;;;6.75;6.75;;;;;16.70;58.11;101939.56;5021950;28;46878;-83
2021/09/28 08:04:57;;;;;;;;;7.75;6.25;;;;;16.75;58.20;101938.84;5038049;28;45480;-84
2021/09/28 08:07:23;;;;;;;;;7.50;6.50;;;;;16.80;58.69;101943.41;5039931;28;45470;-91
2021/09/28 08:09:48;;;;;;;;;7.25;7.25;;;;;16.82;58.11;101944.38;5041103;28;45182;-82
2021/09/28 08:12:14;;;;;;;;;8.25;6.75;;;;;16.87;58.16;101944.53;5020896;28;46796;-86
2021/09/28 08:14:40;;;;;;;;;12.50;8.50;;;;;16.89;58.05;101945.50;5024506;28;45391;-83
2021/09/28 08:17:06;;;;;;;;;9.25;6.00;;;;;16.91;57.87;101945.53;5019069;28;45357;-85
2021/09/28 08:19:39;;;;;;;;;8.75;7.25;;;;;16.95;57.75;101942.25;5038244;28;45924;-87
2021/09/28 08:22:08;;;;;;;;;10.00;10.00;;;;;16.97;57.90;101946.69;5038028;28;45691;-87
2021/09/28 08:24:40;;;;;;;;;11.75;7.00;;;;;17.05;57.64;101944.38;5038942;28;45403;-85
2021/09/28 08:29:51;;;;;;;;;8.75;7.00;;;;;17.15;57.46;101937.72;5040321;28;45189;-85
2021/09/28 08:32:17;;;;;;;;;11.50;10.75;;;;;17.21;57.46;101940.56;5036583;28;46121;-88
2021/09/28 08:34:43;;;;;;;;;12.75;9.00;;;;;17.28;56.89;101939.94;5037369;28;45494;-83
2021/09/28 08:37:08;;;;;;;;;5.25;4.50;;;;;17.32;56.54;101941.84;5041259;28;45512;-86
2021/09/28 08:39:34;;;;;;;;;4.00;3.00;;;;;17.38;56.16;101943.78;5042428;28;45377;-84
2021/09/28 08:42:00;;;;;;;;;4.00;4.00;;;;;17.43;55.54;101941.31;5040707;28;45418;-82
2021/09/28 08:44:26;;;;;;;;;5.00;4.75;;;;;17.40;55.28;101949.94;5039479;28;45363;-86
2021/09/28 08:46:52;;;;;;;;;3.25;2.00;;;;;17.45;55.17;101952.72;5038217;28;45423;-84
2021/09/28 08:49:21;;;;;;;;;3.50;2.50;;;;;17.46;54.85;101937.09;5039142;28;45660;-82
2021/09/28 08:51:48;;;;;;;;;1.25;1.25;;;;;17.51;54.78;101946.81;5032938;28;46836;-81
2021/09/28 08:54:15;;;;;;;;;2.50;2.50;;;;;17.55;54.59;101944.34;5034205;28;45314;-83
2021/09/28 08:56:42;;;;;;;;;3.50;2.25;;;;;17.59;54.19;101941.00;5021114;28;45344;-81
2021/09/28 08:59:10;;;;;;;;;2.25;2.25;;;;;17.64;54.20;101936.81;5013187;28;45323;-88
2021/09/28 09:01:37;;;;;;;;;4.00;2.75;;;;;17.70;54.44;101945.72;5022459;28;45424;-86
2021/09/28 09:04:17;;;;;;;;;3.75;2.50;;;;;17.75;53.46;101942.41;5024432;28;45826;-88
2021/09/28 09:06:45;;;;;;;;;3.00;1.75;;;;;17.79;53.73;101941.69;5032514;28;45222;-89
2021/09/28 09:09:13;;;;;;;;;3.00;2.75;;;;;17.83;53.81;101937.44;5045782;28;45466;-89
2021/09/28 09:11:41;;;;;;;;;6.00;3.50;;;;;17.86;53.38;101945.41;5024730;28;46886;-91
2021/09/28 09:14:21;;;;;;;;;6.75;4.00;;;;;17.89;53.18;101940.22;5042593;28;45339;-90
2021/09/28 09:16:52;;;;;;;;;4.00;3.00;;;;;17.93;53.27;101936.88;5041486;28;45521;-92
2021/09/28 09:19:28;;;;;;;;;3.00;3.00;;;;;17.99;52.89;101941.47;5041608;28;45376;-86
2021/09/28 09:21:57;;;;;;;;;2.75;2.00;;;;;18.05;53.15;101935.53;5023241;28;46783;-85
2021/09/28 09:24:46;;;;;;;;;7.75;3.25;;;;;18.13;53.11;101939.28;5042361;28;45669;-86
2021/09/28 09:27:15;;;;;;;;;3.25;2.25;;;;;18.18;52.97;101934.19;5022497;28;45391;-86
2021/09/28 09:29:42;;;;;;;;;4.50;3.25;;;;;18.23;52.76;101928.25;5024704;28;45850;-86
2021/09/28 09:32:10;;;;;;;;;4.25;4.00;;;;;18.29;52.99;101924.94;5045332;28;46590;-90
2021/09/28 09:34:36;;;;;;;;;5.75;5.50;;;;;18.35;53.12;101909.41;5045115;28;45347;-91
2021/09/28 09:37:05;;;;;;;;;5.25;5.25;;;;;18.45;53.09;101917.53;5045257;28;45226;-82
2021/09/28 09:39:53;;;;;;;;;4.25;2.50;;;;;18.53;52.81;101905.53;5045204;28;45489;-89
2021/09/28 09:42:20;;;;;;;;;3.00;3.00;;;;;18.59;52.29;101908.31;5043818;28;45272;-91
2021/09/28 09:44:46;;;;;;;;;4.00;4.00;;;;;18.63;52.27;101901.44;5041763;28;45689;-82
2021/09/28 09:47:45;;;;;;;;;4.50;2.00;;;;;18.68;52.17;101897.22;5032031;28;45300;-93
2021/09/28 09:50:22;;;;;;;;;3.25;1.75;;;;;18.68;51.35;101884.97;5010645;28;45379;-89
2021/09/28 09:52:54;;;;;;;;;2.00;2.00;;;;;18.76;50.90;101894.81;5046922;28;46058;-86
2021/09/28 09:55:26;;;;;;;;;1.50;1.50;;;;;18.76;51.05;101871.22;5025242;28;45252;-91
2021/09/28 09:57:52;;;;;;;;;3.50;2.00;;;;;18.84;51.48;101875.81;5047957;28;45491;-85
2021/09/28 10:00:19;;;;;;;;;3.25;2.00;;;;;18.92;50.85;101876.03;5042814;28;45702;-90
2021/09/28 10:02:46;;;;;;;;;1.00;1.00;;;;;18.97;49.68;101877.09;5042045;28;45297;-91
2021/09/28 10:05:12;;;;;;;;;2.00;2.00;;;;;19.00;49.89;101876.28;5044099;28;45264;-80
2021/09/28 10:07:38;;;;;;;;;1.25;1.00;;;;;19.06;50.12;101879.03;5043327;28;45428;-86
2021/09/28 10:10:08;;;;;;;;;2.50;0.25;;;;;19.10;49.95;101875.66;5044077;28;45264;-81
2021/09/28 10:12:38;;;;;;;;;5.75;3.50;;;;;19.18;49.69;101874.13;5040807;28;45483;-91
2021/09/28 10:15:13;;;;;;;;;3.25;2.25;;;;;19.24;49.43;101877.78;5046766;28;45495;-83
2021/09/28 10:17:44;;;;;;;;;1.75;1.25;;;;;19.28;49.22;101877.91;5048716;28;45607;-84
2021/09/28 10:20:22;;;;;;;;;1.50;1.50;;;;;19.33;48.83;101876.25;5031165;28;45457;-84
2021/09/28 10:22:52;;;;;;;;;1.00;1.00;;;;;19.32;48.91;101874.50;5047122;28;46064;-82
2021/09/28 10:25:24;;;;;;;;;1.00;1.00;;;;;19.33;49.04;101881.50;5047895;28;45769;-80
2021/09/28 10:28:04;;;;;;;;;1.00;1.00;;;;;19.34;48.07;101879.78;5045055;28;45272;-84
2021/09/28 10:30:33;;;;;;;;;2.75;1.00;;;;;19.31;47.81;101885.88;5042871;28;45463;-86
2021/09/28 10:33:02;;;;;;;;;0.00;0.00;;;;;19.30;48.07;101878.84;5023700;28;47880;-89
2021/09/28 10:35:29;;;;;;;;;3.00;0.00;;;;;19.33;47.32;101876.25;5042500;28;45128;-86
2021/09/28 10:38:01;;;;;;;;;0.75;0.75;;;;;19.38;47.28;101881.66;5020411;28;45244;-85
2021/09/28 10:40:26;;;;;;;;;1.00;1.00;;;;;19.40;46.90;101881.69;5037055;28;45547;-80
2021/09/28 10:43:09;;;;;;;;;1.25;0.00;;;;;19.39;47.16;101885.16;5038006;28;45938;-83
2021/09/28 10:45:38;;;;;;;;;1.00;1.00;;;;;19.39;46.09;101879.91;5038950;28;45593;-82
2021/09/28 10:48:10;;;;;;;;;2.25;1.00;;;;;19.36;47.09;101878.09;5018461;28;45943;-80
2021/09/28 10:50:44;;;;;;;;;0.00;0.00;;;;;19.38;47.29;101879.03;5056788;28;45513;-80
2021/09/28 10:53:19;;;;;;;;;1.00;1.00;;;;;19.44;46.54;101879.19;5037467;28;47229;-79
2021/09/28 10:56:01;;;;;;;;;1.00;0.00;;;;;19.49;45.95;101871.41;5039259;28;45508;-81
2021/09/28 10:58:28;;;;;;;;;1.00;0.00;;;;;19.52;46.36;101866.25;5038404;28;45377;-81
2021/09/28 11:00:54;;;;;;;;;0.50;0.00;;;;;19.58;46.07;101862.88;5030862;28;46714;-80
2021/09/28 11:03:41;;;;;;;;;1.00;1.00;;;;;19.61;45.55;101857.69;5037820;28;45649;-79
2021/09/28 11:06:09;;;;;;;;;0.25;0.25;;;;;19.62;46.27;101852.47;5019528;28;45802;-83
2021/09/28 11:08:39;;;;;;;;;0.25;0.25;;;;;19.71;45.39;101850.91;5004397;28;45353;-81
2021/09/28 11:11:07;;;;;;;;;0.00;0.00;;;;;19.76;45.30;101850.19;5002383;28;45527;-81
2021/09/28 11:13:35;;;;;;;;;1.75;0.00;;;;;19.77;44.23;101849.31;5018713;28;46338;-83
2021/09/28 11:16:08;;;;;;;;;0.00;0.00;;;;;19.79;44.25;101841.47;5017523;28;45298;-79
2021/09/28 11:18:34;;;;;;;;;2.50;2.00;;;;;19.86;44.06;101845.16;5017043;28;45254;-79